sensor_id;sensor_type;location;lat;lon;timestamp;P1;durP1;ratioP1;P2;durP2;ratioP2
36599;SDS011;35385;55.668;37.508;2023-02-28T00:00:03;14.07;;;9.70;;
36599;SDS011;35385;55.668;37.508;2023-02-28T00:01:14;14.00;;;9.85;;
36599;SDS011;35385;55.668;37.508;2023-02-28T00:02:15;16.70;;;9.50;;
36599;SDS011;35385;55.668;37.508;2023-02-28T00:03:17;15.70;;;9.98;;
36599;SDS011;35385;55.668;37.508;2023-02-28T00:04:18;20.57;;;10.90;;
36599;SDS011;35385;55.668;37.508;2023-02-28T00:05:20;16.27;;;9.50;;
36599;SDS011;35385;55.668;37.508;2023-02-28T00:06:23;14.68;;;10.10;;
36599;SDS011;35385;55.668;37.508;2023-02-28T00:08:24;15.45;;;9.73;;
36599;SDS011;35385;55.668;37.508;2023-02-28T00:09:25;15.23;;;10.60;;
36599;SDS011;35385;55.668;37.508;2023-02-28T00:10:26;16.37;;;9.47;;
36599;SDS011;35385;55.668;37.508;2023-02-28T00:11:29;13.90;;;9.00;;
36599;SDS011;35385;55.668;37.508;2023-02-28T00:12:29;12.77;;;8.67;;
36599;SDS011;35385;55.668;37.508;2023-02-28T00:13:30;11.83;;;7.13;;
36599;SDS011;35385;55.668;37.508;2023-02-28T00:14:31;12.35;;;9.38;;
36599;SDS011;35385;55.668;37.508;2023-02-28T00:15:32;15.47;;;9.00;;
36599;SDS011;35385;55.668;37.508;2023-02-28T00:16:33;14.07;;;9.40;;
36599;SDS011;35385;55.668;37.508;2023-02-28T00:17:34;13.07;;;9.30;;
36599;SDS011;35385;55.668;37.508;2023-02-28T00:18:36;15.82;;;10.18;;
36599;SDS011;35385;55.668;37.508;2023-02-28T00:19:37;13.00;;;8.93;;
36599;SDS011;35385;55.668;37.508;2023-02-28T00:20:37;12.77;;;8.83;;
36599;SDS011;35385;55.668;37.508;2023-02-28T00:21:38;15.53;;;9.73;;
36599;SDS011;35385;55.668;37.508;2023-02-28T00:22:41;15.23;;;8.80;;
36599;SDS011;35385;55.668;37.508;2023-02-28T00:23:44;14.73;;;9.60;;
36599;SDS011;35385;55.668;37.508;2023-02-28T00:24:45;14.33;;;8.60;;
36599;SDS011;35385;55.668;37.508;2023-02-28T00:25:47;15.65;;;9.95;;
36599;SDS011;35385;55.668;37.508;2023-02-28T00:26:48;14.75;;;9.50;;
36599;SDS011;35385;55.668;37.508;2023-02-28T00:27:49;14.57;;;9.40;;
36599;SDS011;35385;55.668;37.508;2023-02-28T00:28:51;15.95;;;9.90;;
36599;SDS011;35385;55.668;37.508;2023-02-28T00:29:52;14.70;;;10.18;;
36599;SDS011;35385;55.668;37.508;2023-02-28T00:30:54;14.68;;;9.85;;
36599;SDS011;35385;55.668;37.508;2023-02-28T00:31:54;16.02;;;9.98;;
36599;SDS011;35385;55.668;37.508;2023-02-28T00:32:55;14.87;;;9.30;;
36599;SDS011;35385;55.668;37.508;2023-02-28T00:33:55;10.30;;;6.97;;
36599;SDS011;35385;55.668;37.508;2023-02-28T00:34:56;13.90;;;9.63;;
36599;SDS011;35385;55.668;37.508;2023-02-28T00:36:06;17.40;;;9.13;;
36599;SDS011;35385;55.668;37.508;2023-02-28T00:37:09;16.90;;;9.93;;
36599;SDS011;35385;55.668;37.508;2023-02-28T00:38:12;16.88;;;10.30;;
36599;SDS011;35385;55.668;37.508;2023-02-28T00:40:14;20.63;;;11.65;;
36599;SDS011;35385;55.668;37.508;2023-02-28T00:41:15;17.97;;;10.67;;
36599;SDS011;35385;55.668;37.508;2023-02-28T00:42:15;16.07;;;10.30;;
36599;SDS011;35385;55.668;37.508;2023-02-28T00:43:16;11.53;;;7.40;;
36599;SDS011;35385;55.668;37.508;2023-02-28T00:44:16;14.77;;;9.50;;
36599;SDS011;35385;55.668;37.508;2023-02-28T00:45:17;12.40;;;8.07;;
36599;SDS011;35385;55.668;37.508;2023-02-28T00:46:23;20.30;;;10.52;;
36599;SDS011;35385;55.668;37.508;2023-02-28T00:47:24;14.33;;;9.63;;
36599;SDS011;35385;55.668;37.508;2023-02-28T00:48:24;16.53;;;10.30;;
36599;SDS011;35385;55.668;37.508;2023-02-28T00:49:25;13.93;;;9.33;;
36599;SDS011;35385;55.668;37.508;2023-02-28T00:50:26;18.27;;;9.85;;
36599;SDS011;35385;55.668;37.508;2023-02-28T00:51:27;16.80;;;9.57;;
36599;SDS011;35385;55.668;37.508;2023-02-28T00:52:27;13.43;;;10.27;;
36599;SDS011;35385;55.668;37.508;2023-02-28T00:53:28;13.80;;;9.00;;
36599;SDS011;35385;55.668;37.508;2023-02-28T00:54:29;15.63;;;9.75;;
36599;SDS011;35385;55.668;37.508;2023-02-28T00:55:30;15.77;;;9.80;;
36599;SDS011;35385;55.668;37.508;2023-02-28T00:56:30;15.27;;;9.93;;
36599;SDS011;35385;55.668;37.508;2023-02-28T00:57:31;16.27;;;9.43;;
36599;SDS011;35385;55.668;37.508;2023-02-28T00:58:31;16.33;;;10.03;;
36599;SDS011;35385;55.668;37.508;2023-02-28T00:59:32;16.23;;;10.07;;
36599;SDS011;35385;55.668;37.508;2023-02-28T01:00:32;19.60;;;10.83;;
36599;SDS011;35385;55.668;37.508;2023-02-28T01:01:33;18.43;;;9.77;;
36599;SDS011;35385;55.668;37.508;2023-02-28T01:02:34;16.58;;;10.60;;
36599;SDS011;35385;55.668;37.508;2023-02-28T01:03:35;17.80;;;10.88;;
36599;SDS011;35385;55.668;37.508;2023-02-28T01:04:35;18.23;;;10.90;;
36599;SDS011;35385;55.668;37.508;2023-02-28T01:05:36;16.37;;;10.40;;
36599;SDS011;35385;55.668;37.508;2023-02-28T01:06:36;17.63;;;10.97;;
36599;SDS011;35385;55.668;37.508;2023-02-28T01:07:37;18.50;;;10.50;;
36599;SDS011;35385;55.668;37.508;2023-02-28T01:08:38;18.13;;;10.63;;
36599;SDS011;35385;55.668;37.508;2023-02-28T01:09:38;19.33;;;10.53;;
36599;SDS011;35385;55.668;37.508;2023-02-28T01:10:39;17.17;;;10.17;;
36599;SDS011;35385;55.668;37.508;2023-02-28T01:11:40;11.70;;;8.48;;
36599;SDS011;35385;55.668;37.508;2023-02-28T01:12:43;16.00;;;10.07;;
36599;SDS011;35385;55.668;37.508;2023-02-28T01:13:45;17.27;;;10.30;;
36599;SDS011;35385;55.668;37.508;2023-02-28T01:14:46;15.05;;;9.65;;
36599;SDS011;35385;55.668;37.508;2023-02-28T01:15:50;15.70;;;9.95;;
36599;SDS011;35385;55.668;37.508;2023-02-28T01:16:52;18.15;;;9.77;;
36599;SDS011;35385;55.668;37.508;2023-02-28T01:17:53;20.47;;;10.07;;
36599;SDS011;35385;55.668;37.508;2023-02-28T01:18:54;15.43;;;9.40;;
36599;SDS011;35385;55.668;37.508;2023-02-28T01:19:54;19.77;;;10.67;;
36599;SDS011;35385;55.668;37.508;2023-02-28T01:20:55;15.93;;;9.18;;
36599;SDS011;35385;55.668;37.508;2023-02-28T01:21:56;15.83;;;9.63;;
36599;SDS011;35385;55.668;37.508;2023-02-28T01:22:57;14.63;;;9.50;;
36599;SDS011;35385;55.668;37.508;2023-02-28T01:23:57;13.97;;;8.83;;
36599;SDS011;35385;55.668;37.508;2023-02-28T01:24:58;15.87;;;9.67;;
36599;SDS011;35385;55.668;37.508;2023-02-28T01:26:09;14.50;;;9.33;;
36599;SDS011;35385;55.668;37.508;2023-02-28T01:27:16;15.65;;;8.95;;
36599;SDS011;35385;55.668;37.508;2023-02-28T01:28:17;14.73;;;9.23;;
36599;SDS011;35385;55.668;37.508;2023-02-28T01:29:18;12.27;;;7.57;;
36599;SDS011;35385;55.668;37.508;2023-02-28T01:30:18;14.80;;;8.40;;
36599;SDS011;35385;55.668;37.508;2023-02-28T01:31:19;13.50;;;9.10;;
36599;SDS011;35385;55.668;37.508;2023-02-28T01:32:21;12.45;;;8.05;;
36599;SDS011;35385;55.668;37.508;2023-02-28T01:33:21;14.27;;;8.50;;
36599;SDS011;35385;55.668;37.508;2023-02-28T01:34:22;12.27;;;9.27;;
36599;SDS011;35385;55.668;37.508;2023-02-28T01:35:22;15.20;;;8.60;;
36599;SDS011;35385;55.668;37.508;2023-02-28T01:36:23;14.90;;;8.90;;
36599;SDS011;35385;55.668;37.508;2023-02-28T01:37:24;14.27;;;8.82;;
36599;SDS011;35385;55.668;37.508;2023-02-28T01:38:25;13.25;;;9.05;;
36599;SDS011;35385;55.668;37.508;2023-02-28T01:39:26;14.13;;;9.30;;
36599;SDS011;35385;55.668;37.508;2023-02-28T01:40:27;15.40;;;9.03;;
36599;SDS011;35385;55.668;37.508;2023-02-28T01:41:29;14.23;;;8.50;;
36599;SDS011;35385;55.668;37.508;2023-02-28T01:42:31;13.80;;;8.73;;
36599;SDS011;35385;55.668;37.508;2023-02-28T01:46:00;13.00;;;9.07;;
36599;SDS011;35385;55.668;37.508;2023-02-28T01:47:00;10.80;;;7.73;;
36599;SDS011;35385;55.668;37.508;2023-02-28T01:48:02;12.50;;;8.43;;
36599;SDS011;35385;55.668;37.508;2023-02-28T01:49:09;13.90;;;8.32;;
36599;SDS011;35385;55.668;37.508;2023-02-28T01:50:14;11.05;;;7.47;;
36599;SDS011;35385;55.668;37.508;2023-02-28T01:51:24;11.13;;;7.72;;
36599;SDS011;35385;55.668;37.508;2023-02-28T01:52:29;12.05;;;8.20;;
36599;SDS011;35385;55.668;37.508;2023-02-28T01:53:36;11.07;;;7.63;;
36599;SDS011;35385;55.668;37.508;2023-02-28T01:54:39;11.57;;;8.35;;
36599;SDS011;35385;55.668;37.508;2023-02-28T01:55:40;10.02;;;7.82;;
36599;SDS011;35385;55.668;37.508;2023-02-28T01:56:46;14.15;;;8.23;;
36599;SDS011;35385;55.668;37.508;2023-02-28T01:57:52;11.38;;;7.97;;
36599;SDS011;35385;55.668;37.508;2023-02-28T01:58:56;12.05;;;8.20;;
36599;SDS011;35385;55.668;37.508;2023-02-28T01:59:57;11.02;;;7.22;;
36599;SDS011;35385;55.668;37.508;2023-02-28T02:01:04;10.38;;;7.10;;
36599;SDS011;35385;55.668;37.508;2023-02-28T02:02:05;10.83;;;7.83;;
36599;SDS011;35385;55.668;37.508;2023-02-28T02:03:08;11.70;;;7.97;;
36599;SDS011;35385;55.668;37.508;2023-02-28T02:04:12;11.65;;;7.30;;
36599;SDS011;35385;55.668;37.508;2023-02-28T02:05:17;9.80;;;7.13;;
36599;SDS011;35385;55.668;37.508;2023-02-28T02:06:19;11.13;;;7.53;;
36599;SDS011;35385;55.668;37.508;2023-02-28T02:07:20;11.40;;;7.13;;
36599;SDS011;35385;55.668;37.508;2023-02-28T02:09:26;10.43;;;7.40;;
36599;SDS011;35385;55.668;37.508;2023-02-28T02:10:29;10.83;;;7.30;;
36599;SDS011;35385;55.668;37.508;2023-02-28T02:11:33;12.65;;;6.80;;
36599;SDS011;35385;55.668;37.508;2023-02-28T02:20:51;12.00;;;8.00;;
36599;SDS011;35385;55.668;37.508;2023-02-28T02:25:42;10.65;;;7.32;;
36599;SDS011;35385;55.668;37.508;2023-02-28T02:26:55;10.38;;;6.82;;
36599;SDS011;35385;55.668;37.508;2023-02-28T02:30:36;12.13;;;7.80;;
36599;SDS011;35385;55.668;37.508;2023-02-28T02:34:42;13.07;;;8.45;;
36599;SDS011;35385;55.668;37.508;2023-02-28T02:41:16;11.52;;;7.72;;
36599;SDS011;35385;55.668;37.508;2023-02-28T02:42:29;12.50;;;8.50;;
36599;SDS011;35385;55.668;37.508;2023-02-28T02:43:44;10.05;;;7.30;;
36599;SDS011;35385;55.668;37.508;2023-02-28T02:44:51;11.88;;;7.68;;
36599;SDS011;35385;55.668;37.508;2023-02-28T02:46:20;10.63;;;7.28;;
36599;SDS011;35385;55.668;37.508;2023-02-28T02:47:22;11.68;;;7.55;;
36599;SDS011;35385;55.668;37.508;2023-02-28T02:48:26;9.77;;;7.30;;
36599;SDS011;35385;55.668;37.508;2023-02-28T02:49:31;10.73;;;7.28;;
36599;SDS011;35385;55.668;37.508;2023-02-28T02:50:41;10.52;;;6.95;;
36599;SDS011;35385;55.668;37.508;2023-02-28T02:51:45;9.70;;;6.72;;
36599;SDS011;35385;55.668;37.508;2023-02-28T02:52:49;10.43;;;7.03;;
36599;SDS011;35385;55.668;37.508;2023-02-28T02:53:55;9.90;;;7.05;;
36599;SDS011;35385;55.668;37.508;2023-02-28T02:55:03;10.77;;;7.30;;
36599;SDS011;35385;55.668;37.508;2023-02-28T02:56:07;10.88;;;7.60;;
36599;SDS011;35385;55.668;37.508;2023-02-28T02:58:16;11.48;;;7.07;;
36599;SDS011;35385;55.668;37.508;2023-02-28T02:59:21;10.57;;;6.18;;
36599;SDS011;35385;55.668;37.508;2023-02-28T03:00:25;10.40;;;6.40;;
36599;SDS011;35385;55.668;37.508;2023-02-28T03:01:31;13.00;;;7.07;;
36599;SDS011;35385;55.668;37.508;2023-02-28T03:02:35;9.15;;;6.20;;
36599;SDS011;35385;55.668;37.508;2023-02-28T03:03:38;8.18;;;6.28;;
36599;SDS011;35385;55.668;37.508;2023-02-28T03:04:43;8.77;;;6.63;;
36599;SDS011;35385;55.668;37.508;2023-02-28T03:05:49;10.43;;;6.63;;
36599;SDS011;35385;55.668;37.508;2023-02-28T03:06:50;11.55;;;7.03;;
36599;SDS011;35385;55.668;37.508;2023-02-28T03:07:55;8.68;;;6.53;;
36599;SDS011;35385;55.668;37.508;2023-02-28T03:08:55;9.33;;;6.97;;
36599;SDS011;35385;55.668;37.508;2023-02-28T03:09:56;9.10;;;6.63;;
36599;SDS011;35385;55.668;37.508;2023-02-28T03:11:02;13.63;;;7.65;;
36599;SDS011;35385;55.668;37.508;2023-02-28T03:12:06;8.98;;;6.43;;
36599;SDS011;35385;55.668;37.508;2023-02-28T03:18:30;8.02;;;5.95;;
36599;SDS011;35385;55.668;37.508;2023-02-28T03:20:54;8.65;;;6.28;;
36599;SDS011;35385;55.668;37.508;2023-02-28T03:25:19;8.75;;;5.82;;
36599;SDS011;35385;55.668;37.508;2023-02-28T03:26:27;9.10;;;6.00;;
36599;SDS011;35385;55.668;37.508;2023-02-28T03:27:30;9.75;;;5.90;;
36599;SDS011;35385;55.668;37.508;2023-02-28T03:28:43;8.50;;;6.20;;
36599;SDS011;35385;55.668;37.508;2023-02-28T03:30:04;11.98;;;6.00;;
36599;SDS011;35385;55.668;37.508;2023-02-28T03:31:15;9.10;;;6.28;;
36599;SDS011;35385;55.668;37.508;2023-02-28T03:32:27;8.50;;;5.88;;
36599;SDS011;35385;55.668;37.508;2023-02-28T03:33:58;9.82;;;6.20;;
36599;SDS011;35385;55.668;37.508;2023-02-28T03:35:20;8.73;;;5.78;;
36599;SDS011;35385;55.668;37.508;2023-02-28T03:36:30;8.93;;;5.75;;
36599;SDS011;35385;55.668;37.508;2023-02-28T03:37:43;11.20;;;6.03;;
36599;SDS011;35385;55.668;37.508;2023-02-28T03:38:50;7.93;;;5.78;;
36599;SDS011;35385;55.668;37.508;2023-02-28T03:40:02;8.73;;;6.07;;
36599;SDS011;35385;55.668;37.508;2023-02-28T03:41:19;8.45;;;5.82;;
36599;SDS011;35385;55.668;37.508;2023-02-28T03:42:23;8.85;;;5.80;;
36599;SDS011;35385;55.668;37.508;2023-02-28T03:43:28;8.38;;;5.72;;
36599;SDS011;35385;55.668;37.508;2023-02-28T03:44:49;8.90;;;6.13;;
36599;SDS011;35385;55.668;37.508;2023-02-28T03:45:54;7.97;;;5.57;;
36599;SDS011;35385;55.668;37.508;2023-02-28T03:47:03;8.25;;;5.90;;
36599;SDS011;35385;55.668;37.508;2023-02-28T03:48:19;7.57;;;5.55;;
36599;SDS011;35385;55.668;37.508;2023-02-28T03:49:25;8.15;;;5.78;;
36599;SDS011;35385;55.668;37.508;2023-02-28T03:51:31;7.30;;;4.47;;
36599;SDS011;35385;55.668;37.508;2023-02-28T03:53:36;6.88;;;4.82;;
36599;SDS011;35385;55.668;37.508;2023-02-28T03:54:44;8.88;;;6.05;;
36599;SDS011;35385;55.668;37.508;2023-02-28T03:55:49;10.73;;;5.93;;
36599;SDS011;35385;55.668;37.508;2023-02-28T03:56:59;8.38;;;5.90;;
36599;SDS011;35385;55.668;37.508;2023-02-28T03:58:49;8.60;;;5.60;;
36599;SDS011;35385;55.668;37.508;2023-02-28T03:59:38;9.32;;;5.65;;
36599;SDS011;35385;55.668;37.508;2023-02-28T04:00:45;10.05;;;5.85;;
36599;SDS011;35385;55.668;37.508;2023-02-28T04:01:49;7.57;;;5.43;;
36599;SDS011;35385;55.668;37.508;2023-02-28T04:02:51;7.82;;;5.43;;
36599;SDS011;35385;55.668;37.508;2023-02-28T04:03:52;7.80;;;5.55;;
36599;SDS011;35385;55.668;37.508;2023-02-28T04:04:53;7.70;;;5.65;;
36599;SDS011;35385;55.668;37.508;2023-02-28T04:05:54;9.17;;;5.90;;
36599;SDS011;35385;55.668;37.508;2023-02-28T04:07:03;9.68;;;5.63;;
36599;SDS011;35385;55.668;37.508;2023-02-28T04:08:07;9.20;;;5.40;;
36599;SDS011;35385;55.668;37.508;2023-02-28T04:09:08;7.82;;;5.40;;
36599;SDS011;35385;55.668;37.508;2023-02-28T04:10:11;8.13;;;6.10;;
36599;SDS011;35385;55.668;37.508;2023-02-28T04:12:19;7.72;;;5.00;;
36599;SDS011;35385;55.668;37.508;2023-02-28T04:13:23;8.02;;;5.28;;
36599;SDS011;35385;55.668;37.508;2023-02-28T04:14:24;8.32;;;5.60;;
36599;SDS011;35385;55.668;37.508;2023-02-28T04:15:24;6.85;;;4.85;;
36599;SDS011;35385;55.668;37.508;2023-02-28T04:16:27;9.23;;;5.85;;
36599;SDS011;35385;55.668;37.508;2023-02-28T04:17:29;8.23;;;5.32;;
36599;SDS011;35385;55.668;37.508;2023-02-28T04:18:29;7.53;;;5.23;;
36599;SDS011;35385;55.668;37.508;2023-02-28T04:19:30;8.73;;;5.50;;
36599;SDS011;35385;55.668;37.508;2023-02-28T04:20:30;8.80;;;5.70;;
36599;SDS011;35385;55.668;37.508;2023-02-28T04:21:35;5.73;;;3.83;;
36599;SDS011;35385;55.668;37.508;2023-02-28T04:22:39;8.32;;;5.60;;
36599;SDS011;35385;55.668;37.508;2023-02-28T04:23:39;6.83;;;4.83;;
36599;SDS011;35385;55.668;37.508;2023-02-28T04:24:40;9.60;;;4.95;;
36599;SDS011;35385;55.668;37.508;2023-02-28T04:25:41;8.20;;;5.47;;
36599;SDS011;35385;55.668;37.508;2023-02-28T04:26:43;7.97;;;5.17;;
36599;SDS011;35385;55.668;37.508;2023-02-28T04:27:45;7.75;;;4.88;;
36599;SDS011;35385;55.668;37.508;2023-02-28T04:28:46;9.93;;;5.93;;
36599;SDS011;35385;55.668;37.508;2023-02-28T04:29:46;6.73;;;4.63;;
36599;SDS011;35385;55.668;37.508;2023-02-28T04:30:47;8.35;;;5.20;;
36599;SDS011;35385;55.668;37.508;2023-02-28T04:31:53;6.57;;;4.72;;
36599;SDS011;35385;55.668;37.508;2023-02-28T04:32:58;6.72;;;5.15;;
36599;SDS011;35385;55.668;37.508;2023-02-28T04:33:59;7.93;;;5.43;;
36599;SDS011;35385;55.668;37.508;2023-02-28T04:34:59;9.68;;;5.68;;
36599;SDS011;35385;55.668;37.508;2023-02-28T04:36:01;7.27;;;5.27;;
36599;SDS011;35385;55.668;37.508;2023-02-28T04:37:03;7.25;;;4.55;;
36599;SDS011;35385;55.668;37.508;2023-02-28T04:38:04;7.00;;;4.80;;
36599;SDS011;35385;55.668;37.508;2023-02-28T04:39:04;7.17;;;4.63;;
36599;SDS011;35385;55.668;37.508;2023-02-28T04:40:05;7.33;;;5.00;;
36599;SDS011;35385;55.668;37.508;2023-02-28T04:41:06;8.15;;;5.20;;
36599;SDS011;35385;55.668;37.508;2023-02-28T04:42:07;8.67;;;5.13;;
36599;SDS011;35385;55.668;37.508;2023-02-28T04:43:07;8.40;;;5.57;;
36599;SDS011;35385;55.668;37.508;2023-02-28T04:44:08;8.57;;;6.00;;
36599;SDS011;35385;55.668;37.508;2023-02-28T04:45:08;7.60;;;4.80;;
36599;SDS011;35385;55.668;37.508;2023-02-28T04:46:10;7.30;;;4.80;;
36599;SDS011;35385;55.668;37.508;2023-02-28T04:47:11;7.38;;;5.03;;
36599;SDS011;35385;55.668;37.508;2023-02-28T04:48:11;8.07;;;4.97;;
36599;SDS011;35385;55.668;37.508;2023-02-28T04:49:12;6.40;;;4.60;;
36599;SDS011;35385;55.668;37.508;2023-02-28T04:50:13;8.02;;;4.63;;
36599;SDS011;35385;55.668;37.508;2023-02-28T04:51:14;9.03;;;5.50;;
36599;SDS011;35385;55.668;37.508;2023-02-28T04:52:17;8.10;;;4.80;;
36599;SDS011;35385;55.668;37.508;2023-02-28T04:53:18;7.73;;;5.00;;
36599;SDS011;35385;55.668;37.508;2023-02-28T04:54:19;7.18;;;4.63;;
36599;SDS011;35385;55.668;37.508;2023-02-28T04:55:19;7.30;;;4.95;;
36599;SDS011;35385;55.668;37.508;2023-02-28T04:56:20;8.53;;;5.00;;
36599;SDS011;35385;55.668;37.508;2023-02-28T04:57:21;6.45;;;4.50;;
36599;SDS011;35385;55.668;37.508;2023-02-28T04:58:21;6.80;;;4.73;;
36599;SDS011;35385;55.668;37.508;2023-02-28T04:59:25;7.97;;;4.97;;
36599;SDS011;35385;55.668;37.508;2023-02-28T05:00:25;6.33;;;4.60;;
36599;SDS011;35385;55.668;37.508;2023-02-28T05:01:27;7.53;;;5.07;;
36599;SDS011;35385;55.668;37.508;2023-02-28T05:02:29;6.95;;;5.03;;
36599;SDS011;35385;55.668;37.508;2023-02-28T05:03:30;6.10;;;4.07;;
36599;SDS011;35385;55.668;37.508;2023-02-28T05:04:30;7.10;;;4.63;;
36599;SDS011;35385;55.668;37.508;2023-02-28T05:05:34;5.95;;;4.22;;
36599;SDS011;35385;55.668;37.508;2023-02-28T05:06:34;7.93;;;5.10;;
36599;SDS011;35385;55.668;37.508;2023-02-28T05:07:35;7.00;;;4.50;;
36599;SDS011;35385;55.668;37.508;2023-02-28T05:08:35;6.87;;;4.80;;
36599;SDS011;35385;55.668;37.508;2023-02-28T05:09:36;6.97;;;4.90;;
36599;SDS011;35385;55.668;37.508;2023-02-28T05:10:37;7.70;;;5.07;;
36599;SDS011;35385;55.668;37.508;2023-02-28T05:11:37;11.73;;;4.83;;
36599;SDS011;35385;55.668;37.508;2023-02-28T05:12:39;5.85;;;3.95;;
36599;SDS011;35385;55.668;37.508;2023-02-28T05:13:39;7.67;;;4.57;;
36599;SDS011;35385;55.668;37.508;2023-02-28T05:14:40;8.10;;;4.77;;
36599;SDS011;35385;55.668;37.508;2023-02-28T05:15:40;6.57;;;4.30;;
36599;SDS011;35385;55.668;37.508;2023-02-28T05:16:41;7.87;;;4.83;;
36599;SDS011;35385;55.668;37.508;2023-02-28T05:17:42;7.57;;;4.35;;
36599;SDS011;35385;55.668;37.508;2023-02-28T05:18:43;5.68;;;4.40;;
36599;SDS011;35385;55.668;37.508;2023-02-28T05:19:44;6.65;;;4.45;;
36599;SDS011;35385;55.668;37.508;2023-02-28T05:20:45;7.30;;;4.27;;
36599;SDS011;35385;55.668;37.508;2023-02-28T05:21:53;6.80;;;4.22;;
36599;SDS011;35385;55.668;37.508;2023-02-28T05:22:54;5.78;;;4.22;;
36599;SDS011;35385;55.668;37.508;2023-02-28T05:23:58;7.07;;;4.13;;
36599;SDS011;35385;55.668;37.508;2023-02-28T05:25:00;6.47;;;3.97;;
36599;SDS011;35385;55.668;37.508;2023-02-28T05:26:01;5.30;;;4.23;;
36599;SDS011;35385;55.668;37.508;2023-02-28T05:27:01;6.17;;;4.07;;
36599;SDS011;35385;55.668;37.508;2023-02-28T05:28:03;7.43;;;4.38;;
36599;SDS011;35385;55.668;37.508;2023-02-28T05:29:04;6.07;;;4.15;;
36599;SDS011;35385;55.668;37.508;2023-02-28T05:30:05;5.18;;;3.35;;
36599;SDS011;35385;55.668;37.508;2023-02-28T05:31:08;6.35;;;4.40;;
36599;SDS011;35385;55.668;37.508;2023-02-28T05:32:11;6.18;;;4.20;;
36599;SDS011;35385;55.668;37.508;2023-02-28T05:33:12;5.53;;;4.20;;
36599;SDS011;35385;55.668;37.508;2023-02-28T05:34:13;6.80;;;4.30;;
36599;SDS011;35385;55.668;37.508;2023-02-28T05:35:15;5.28;;;3.92;;
36599;SDS011;35385;55.668;37.508;2023-02-28T05:36:16;6.60;;;4.20;;
36599;SDS011;35385;55.668;37.508;2023-02-28T05:37:16;5.80;;;3.87;;
36599;SDS011;35385;55.668;37.508;2023-02-28T05:38:17;5.77;;;4.10;;
36599;SDS011;35385;55.668;37.508;2023-02-28T05:39:17;8.30;;;5.07;;
36599;SDS011;35385;55.668;37.508;2023-02-28T05:40:18;7.00;;;4.07;;
36599;SDS011;35385;55.668;37.508;2023-02-28T05:41:21;5.55;;;4.05;;
36599;SDS011;35385;55.668;37.508;2023-02-28T05:42:22;7.90;;;5.63;;
36599;SDS011;35385;55.668;37.508;2023-02-28T05:43:23;6.50;;;4.47;;
36599;SDS011;35385;55.668;37.508;2023-02-28T05:44:24;7.05;;;4.43;;
36599;SDS011;35385;55.668;37.508;2023-02-28T05:45:24;6.70;;;3.72;;
36599;SDS011;35385;55.668;37.508;2023-02-28T05:46:25;7.18;;;4.50;;
36599;SDS011;35385;55.668;37.508;2023-02-28T05:47:26;7.10;;;4.80;;
36599;SDS011;35385;55.668;37.508;2023-02-28T05:48:26;6.40;;;4.03;;
36599;SDS011;35385;55.668;37.508;2023-02-28T05:49:27;6.73;;;4.10;;
36599;SDS011;35385;55.668;37.508;2023-02-28T05:50:27;5.63;;;4.17;;
36599;SDS011;35385;55.668;37.508;2023-02-28T05:51:28;8.90;;;4.53;;
36599;SDS011;35385;55.668;37.508;2023-02-28T05:52:29;5.07;;;3.83;;
36599;SDS011;35385;55.668;37.508;2023-02-28T05:53:32;4.53;;;3.58;;
36599;SDS011;35385;55.668;37.508;2023-02-28T05:55:34;5.15;;;4.07;;
36599;SDS011;35385;55.668;37.508;2023-02-28T05:56:36;5.63;;;4.00;;
36599;SDS011;35385;55.668;37.508;2023-02-28T05:57:39;5.35;;;4.00;;
36599;SDS011;35385;55.668;37.508;2023-02-28T05:58:39;6.73;;;4.37;;
36599;SDS011;35385;55.668;37.508;2023-02-28T05:59:40;7.60;;;4.57;;
36599;SDS011;35385;55.668;37.508;2023-02-28T06:00:40;6.33;;;4.20;;
36599;SDS011;35385;55.668;37.508;2023-02-28T06:01:44;6.43;;;4.20;;
36599;SDS011;35385;55.668;37.508;2023-02-28T06:02:48;6.03;;;4.43;;
36599;SDS011;35385;55.668;37.508;2023-02-28T06:03:49;5.87;;;4.20;;
36599;SDS011;35385;55.668;37.508;2023-02-28T06:04:49;6.03;;;4.37;;
36599;SDS011;35385;55.668;37.508;2023-02-28T06:05:50;6.23;;;4.63;;
36599;SDS011;35385;55.668;37.508;2023-02-28T06:06:50;7.37;;;4.17;;
36599;SDS011;35385;55.668;37.508;2023-02-28T06:07:51;5.60;;;4.03;;
36599;SDS011;35385;55.668;37.508;2023-02-28T06:08:51;8.77;;;4.50;;
36599;SDS011;35385;55.668;37.508;2023-02-28T06:09:52;6.97;;;4.47;;
36599;SDS011;35385;55.668;37.508;2023-02-28T06:10:52;5.80;;;4.20;;
36599;SDS011;35385;55.668;37.508;2023-02-28T06:11:53;6.77;;;4.47;;
36599;SDS011;35385;55.668;37.508;2023-02-28T06:12:54;5.95;;;4.05;;
36599;SDS011;35385;55.668;37.508;2023-02-28T06:13:55;7.80;;;4.67;;
36599;SDS011;35385;55.668;37.508;2023-02-28T06:14:56;6.03;;;4.03;;
36599;SDS011;35385;55.668;37.508;2023-02-28T06:16:00;6.40;;;4.67;;
36599;SDS011;35385;55.668;37.508;2023-02-28T06:17:01;7.05;;;4.22;;
36599;SDS011;35385;55.668;37.508;2023-02-28T06:18:03;7.32;;;4.20;;
36599;SDS011;35385;55.668;37.508;2023-02-28T06:19:04;6.63;;;4.18;;
36599;SDS011;35385;55.668;37.508;2023-02-28T06:20:05;7.70;;;4.40;;
36599;SDS011;35385;55.668;37.508;2023-02-28T06:21:06;6.38;;;4.60;;
36599;SDS011;35385;55.668;37.508;2023-02-28T06:22:06;5.38;;;3.83;;
36599;SDS011;35385;55.668;37.508;2023-02-28T06:23:07;5.60;;;4.03;;
36599;SDS011;35385;55.668;37.508;2023-02-28T06:24:08;6.20;;;4.25;;
36599;SDS011;35385;55.668;37.508;2023-02-28T06:25:10;5.72;;;3.78;;
36599;SDS011;35385;55.668;37.508;2023-02-28T06:26:11;6.75;;;4.20;;
36599;SDS011;35385;55.668;37.508;2023-02-28T06:27:12;6.38;;;4.00;;
36599;SDS011;35385;55.668;37.508;2023-02-28T06:28:12;5.47;;;4.10;;
36599;SDS011;35385;55.668;37.508;2023-02-28T06:29:22;8.25;;;4.53;;
36599;SDS011;35385;55.668;37.508;2023-02-28T06:30:26;7.25;;;4.60;;
36599;SDS011;35385;55.668;37.508;2023-02-28T06:31:30;4.82;;;3.67;;
36599;SDS011;35385;55.668;37.508;2023-02-28T06:32:33;9.43;;;5.80;;
36599;SDS011;35385;55.668;37.508;2023-02-28T06:33:34;5.03;;;3.30;;
36599;SDS011;35385;55.668;37.508;2023-02-28T06:34:36;5.88;;;3.72;;
36599;SDS011;35385;55.668;37.508;2023-02-28T06:35:38;9.27;;;3.90;;
36599;SDS011;35385;55.668;37.508;2023-02-28T06:36:40;6.78;;;3.75;;
36599;SDS011;35385;55.668;37.508;2023-02-28T06:37:41;7.43;;;3.80;;
36599;SDS011;35385;55.668;37.508;2023-02-28T06:38:44;5.40;;;3.80;;
36599;SDS011;35385;55.668;37.508;2023-02-28T06:39:48;6.93;;;4.10;;
36599;SDS011;35385;55.668;37.508;2023-02-28T06:40:54;5.28;;;3.58;;
36599;SDS011;35385;55.668;37.508;2023-02-28T06:41:56;5.03;;;3.67;;
36599;SDS011;35385;55.668;37.508;2023-02-28T06:43:06;6.88;;;3.70;;
36599;SDS011;35385;55.668;37.508;2023-02-28T06:44:11;5.80;;;4.00;;
36599;SDS011;35385;55.668;37.508;2023-02-28T06:45:12;5.35;;;3.70;;
36599;SDS011;35385;55.668;37.508;2023-02-28T06:46:13;5.43;;;3.80;;
36599;SDS011;35385;55.668;37.508;2023-02-28T06:47:14;5.63;;;3.38;;
36599;SDS011;35385;55.668;37.508;2023-02-28T06:48:15;4.77;;;3.03;;
36599;SDS011;35385;55.668;37.508;2023-02-28T06:49:15;5.30;;;3.97;;
36599;SDS011;35385;55.668;37.508;2023-02-28T06:50:16;11.77;;;4.63;;
36599;SDS011;35385;55.668;37.508;2023-02-28T06:51:20;5.85;;;3.55;;
36599;SDS011;35385;55.668;37.508;2023-02-28T06:52:22;7.00;;;3.60;;
36599;SDS011;35385;55.668;37.508;2023-02-28T06:53:22;8.32;;;3.92;;
36599;SDS011;35385;55.668;37.508;2023-02-28T06:54:23;6.47;;;3.80;;